sensor_id;sensor_type;location;lat;lon;timestamp;P1;durP1;ratioP1;P2;durP2;ratioP2
70073;SDS011;57445;51.058;3.698;2023-03-21T00:01:23;15.98;;;8.20;;
70073;SDS011;57445;51.058;3.698;2023-03-21T00:03:56;16.02;;;7.50;;
70073;SDS011;57445;51.058;3.698;2023-03-21T00:06:24;16.48;;;7.50;;
70073;SDS011;57445;51.058;3.698;2023-03-21T00:08:52;18.75;;;7.40;;
70073;SDS011;57445;51.058;3.698;2023-03-21T00:11:25;20.67;;;7.25;;
70073;SDS011;57445;51.058;3.698;2023-03-21T00:13:54;15.27;;;7.97;;
70073;SDS011;57445;51.058;3.698;2023-03-21T00:16:28;16.30;;;7.00;;
70073;SDS011;57445;51.058;3.698;2023-03-21T00:18:56;15.10;;;7.25;;
70073;SDS011;57445;51.058;3.698;2023-03-21T00:21:24;17.10;;;7.28;;
70073;SDS011;57445;51.058;3.698;2023-03-21T00:23:57;14.73;;;7.47;;
70073;SDS011;57445;51.058;3.698;2023-03-21T00:26:25;15.77;;;7.18;;
70073;SDS011;57445;51.058;3.698;2023-03-21T00:28:53;16.95;;;8.20;;
70073;SDS011;57445;51.058;3.698;2023-03-21T00:31:21;14.18;;;8.25;;
70073;SDS011;57445;51.058;3.698;2023-03-21T00:33:50;15.20;;;7.53;;
70073;SDS011;57445;51.058;3.698;2023-03-21T00:36:18;16.98;;;8.00;;
70073;SDS011;57445;51.058;3.698;2023-03-21T00:38:51;20.15;;;8.15;;
70073;SDS011;57445;51.058;3.698;2023-03-21T00:41:18;15.27;;;8.55;;
70073;SDS011;57445;51.058;3.698;2023-03-21T00:43:47;17.85;;;8.25;;
70073;SDS011;57445;51.058;3.698;2023-03-21T00:46:17;18.80;;;8.63;;
70073;SDS011;57445;51.058;3.698;2023-03-21T00:48:45;20.33;;;9.20;;
70073;SDS011;57445;51.058;3.698;2023-03-21T00:51:17;14.75;;;7.90;;
70073;SDS011;57445;51.058;3.698;2023-03-21T00:53:51;17.10;;;8.35;;
70073;SDS011;57445;51.058;3.698;2023-03-21T00:56:24;15.35;;;8.15;;
70073;SDS011;57445;51.058;3.698;2023-03-21T00:58:52;15.98;;;8.05;;
70073;SDS011;57445;51.058;3.698;2023-03-21T01:01:24;16.00;;;8.10;;
70073;SDS011;57445;51.058;3.698;2023-03-21T01:04:01;22.45;;;8.45;;
70073;SDS011;57445;51.058;3.698;2023-03-21T01:06:34;17.17;;;8.50;;
70073;SDS011;57445;51.058;3.698;2023-03-21T01:09:06;20.58;;;8.23;;
70073;SDS011;57445;51.058;3.698;2023-03-21T01:11:44;15.95;;;8.23;;
70073;SDS011;57445;51.058;3.698;2023-03-21T01:14:12;17.90;;;7.72;;
70073;SDS011;57445;51.058;3.698;2023-03-21T01:16:42;17.92;;;7.50;;
70073;SDS011;57445;51.058;3.698;2023-03-21T01:19:11;15.00;;;7.57;;
70073;SDS011;57445;51.058;3.698;2023-03-21T01:21:42;18.65;;;8.10;;
70073;SDS011;57445;51.058;3.698;2023-03-21T01:24:10;17.55;;;7.80;;
70073;SDS011;57445;51.058;3.698;2023-03-21T01:26:38;17.75;;;7.63;;
70073;SDS011;57445;51.058;3.698;2023-03-21T01:29:06;19.23;;;7.93;;
70073;SDS011;57445;51.058;3.698;2023-03-21T01:31:34;14.32;;;7.68;;
70073;SDS011;57445;51.058;3.698;2023-03-21T01:34:01;14.25;;;7.47;;
70073;SDS011;57445;51.058;3.698;2023-03-21T01:36:34;16.02;;;7.78;;
70073;SDS011;57445;51.058;3.698;2023-03-21T01:39:09;14.88;;;7.40;;
70073;SDS011;57445;51.058;3.698;2023-03-21T01:41:37;19.45;;;7.28;;
70073;SDS011;57445;51.058;3.698;2023-03-21T01:44:08;14.95;;;7.20;;
70073;SDS011;57445;51.058;3.698;2023-03-21T01:46:41;15.70;;;7.47;;
70073;SDS011;57445;51.058;3.698;2023-03-21T01:49:17;18.63;;;7.30;;
70073;SDS011;57445;51.058;3.698;2023-03-21T01:51:55;17.40;;;6.80;;
70073;SDS011;57445;51.058;3.698;2023-03-21T01:54:33;15.45;;;6.72;;
70073;SDS011;57445;51.058;3.698;2023-03-21T01:57:05;14.55;;;6.78;;
70073;SDS011;57445;51.058;3.698;2023-03-21T01:59:36;15.00;;;6.57;;
70073;SDS011;57445;51.058;3.698;2023-03-21T02:02:10;12.95;;;6.45;;
70073;SDS011;57445;51.058;3.698;2023-03-21T02:04:39;14.90;;;6.30;;
70073;SDS011;57445;51.058;3.698;2023-03-21T02:07:22;12.20;;;6.35;;
70073;SDS011;57445;51.058;3.698;2023-03-21T02:09:55;13.10;;;5.68;;
70073;SDS011;57445;51.058;3.698;2023-03-21T02:12:24;14.00;;;6.03;;
70073;SDS011;57445;51.058;3.698;2023-03-21T02:14:52;20.65;;;6.07;;
70073;SDS011;57445;51.058;3.698;2023-03-21T02:17:27;14.20;;;5.75;;
70073;SDS011;57445;51.058;3.698;2023-03-21T02:20:17;14.00;;;5.85;;
70073;SDS011;57445;51.058;3.698;2023-03-21T02:23:20;11.45;;;5.75;;
70073;SDS011;57445;51.058;3.698;2023-03-21T02:26:18;12.63;;;5.65;;
70073;SDS011;57445;51.058;3.698;2023-03-21T02:29:04;12.45;;;6.13;;
70073;SDS011;57445;51.058;3.698;2023-03-21T02:31:40;14.27;;;6.05;;
70073;SDS011;57445;51.058;3.698;2023-03-21T02:34:21;19.13;;;6.53;;
70073;SDS011;57445;51.058;3.698;2023-03-21T02:37:17;13.80;;;5.72;;
70073;SDS011;57445;51.058;3.698;2023-03-21T02:39:50;14.70;;;5.47;;
70073;SDS011;57445;51.058;3.698;2023-03-21T02:42:27;14.00;;;5.85;;
70073;SDS011;57445;51.058;3.698;2023-03-21T02:45:01;17.58;;;5.60;;
70073;SDS011;57445;51.058;3.698;2023-03-21T02:47:36;14.02;;;5.65;;
70073;SDS011;57445;51.058;3.698;2023-03-21T02:50:09;12.60;;;5.65;;
70073;SDS011;57445;51.058;3.698;2023-03-21T02:52:41;12.38;;;5.47;;
70073;SDS011;57445;51.058;3.698;2023-03-21T02:55:13;15.60;;;5.20;;
70073;SDS011;57445;51.058;3.698;2023-03-21T02:57:46;12.55;;;5.53;;
70073;SDS011;57445;51.058;3.698;2023-03-21T03:00:18;12.70;;;5.03;;
70073;SDS011;57445;51.058;3.698;2023-03-21T03:02:52;14.10;;;5.10;;
70073;SDS011;57445;51.058;3.698;2023-03-21T03:05:21;12.50;;;5.35;;
70073;SDS011;57445;51.058;3.698;2023-03-21T03:07:58;15.50;;;5.28;;
70073;SDS011;57445;51.058;3.698;2023-03-21T03:10:42;13.80;;;5.45;;
70073;SDS011;57445;51.058;3.698;2023-03-21T03:13:23;13.75;;;4.95;;
70073;SDS011;57445;51.058;3.698;2023-03-21T03:16:03;12.15;;;5.20;;
70073;SDS011;57445;51.058;3.698;2023-03-21T03:18:40;12.70;;;5.40;;
70073;SDS011;57445;51.058;3.698;2023-03-21T03:21:17;14.15;;;5.53;;
70073;SDS011;57445;51.058;3.698;2023-03-21T03:23:49;10.52;;;4.85;;
70073;SDS011;57445;51.058;3.698;2023-03-21T03:26:20;14.75;;;5.85;;
70073;SDS011;57445;51.058;3.698;2023-03-21T03:28:53;11.82;;;5.32;;
70073;SDS011;57445;51.058;3.698;2023-03-21T03:31:25;14.05;;;5.57;;
70073;SDS011;57445;51.058;3.698;2023-03-21T03:33:56;12.93;;;5.35;;
70073;SDS011;57445;51.058;3.698;2023-03-21T03:36:28;12.07;;;4.80;;
70073;SDS011;57445;51.058;3.698;2023-03-21T03:39:02;12.23;;;5.20;;
70073;SDS011;57445;51.058;3.698;2023-03-21T03:41:34;13.93;;;5.55;;
70073;SDS011;57445;51.058;3.698;2023-03-21T03:44:12;12.88;;;5.28;;
70073;SDS011;57445;51.058;3.698;2023-03-21T03:46:46;14.30;;;6.00;;
70073;SDS011;57445;51.058;3.698;2023-03-21T03:49:20;12.30;;;5.32;;
70073;SDS011;57445;51.058;3.698;2023-03-21T03:51:56;14.30;;;5.85;;
70073;SDS011;57445;51.058;3.698;2023-03-21T03:54:30;14.70;;;5.82;;
70073;SDS011;57445;51.058;3.698;2023-03-21T03:57:03;13.35;;;5.30;;
70073;SDS011;57445;51.058;3.698;2023-03-21T03:59:32;13.82;;;6.13;;
70073;SDS011;57445;51.058;3.698;2023-03-21T04:02:01;11.43;;;5.65;;
70073;SDS011;57445;51.058;3.698;2023-03-21T04:04:29;18.98;;;6.65;;
70073;SDS011;57445;51.058;3.698;2023-03-21T04:06:57;15.25;;;6.10;;
70073;SDS011;57445;51.058;3.698;2023-03-21T04:09:29;16.27;;;6.28;;
70073;SDS011;57445;51.058;3.698;2023-03-21T04:11:58;22.10;;;6.78;;
70073;SDS011;57445;51.058;3.698;2023-03-21T04:14:26;14.98;;;6.30;;
70073;SDS011;57445;51.058;3.698;2023-03-21T04:16:54;11.90;;;6.35;;
70073;SDS011;57445;51.058;3.698;2023-03-21T04:19:22;14.48;;;7.13;;
70073;SDS011;57445;51.058;3.698;2023-03-21T04:21:49;17.58;;;6.97;;
70073;SDS011;57445;51.058;3.698;2023-03-21T04:24:18;13.40;;;5.85;;
70073;SDS011;57445;51.058;3.698;2023-03-21T04:26:48;15.10;;;6.40;;
70073;SDS011;57445;51.058;3.698;2023-03-21T04:29:23;15.82;;;6.75;;
70073;SDS011;57445;51.058;3.698;2023-03-21T04:31:51;21.30;;;7.93;;
70073;SDS011;57445;51.058;3.698;2023-03-21T04:34:18;19.27;;;8.05;;
70073;SDS011;57445;51.058;3.698;2023-03-21T04:36:48;15.43;;;7.38;;
70073;SDS011;57445;51.058;3.698;2023-03-21T04:39:19;20.52;;;7.10;;
70073;SDS011;57445;51.058;3.698;2023-03-21T04:41:51;15.45;;;7.22;;
70073;SDS011;57445;51.058;3.698;2023-03-21T04:44:23;19.02;;;7.63;;
70073;SDS011;57445;51.058;3.698;2023-03-21T04:46:51;17.73;;;8.30;;
70073;SDS011;57445;51.058;3.698;2023-03-21T04:49:19;16.17;;;8.02;;
70073;SDS011;57445;51.058;3.698;2023-03-21T04:51:47;15.75;;;7.63;;
70073;SDS011;57445;51.058;3.698;2023-03-21T04:54:19;16.85;;;7.70;;
70073;SDS011;57445;51.058;3.698;2023-03-21T04:56:53;19.08;;;8.00;;
70073;SDS011;57445;51.058;3.698;2023-03-21T04:59:21;20.08;;;7.82;;
70073;SDS011;57445;51.058;3.698;2023-03-21T05:01:49;17.38;;;8.70;;
70073;SDS011;57445;51.058;3.698;2023-03-21T05:04:17;18.35;;;8.57;;
70073;SDS011;57445;51.058;3.698;2023-03-21T05:06:45;18.50;;;8.57;;
70073;SDS011;57445;51.058;3.698;2023-03-21T05:09:12;18.98;;;8.63;;
70073;SDS011;57445;51.058;3.698;2023-03-21T05:11:45;22.52;;;9.30;;
70073;SDS011;57445;51.058;3.698;2023-03-21T05:14:17;23.42;;;9.52;;
70073;SDS011;57445;51.058;3.698;2023-03-21T05:16:46;23.15;;;9.88;;
70073;SDS011;57445;51.058;3.698;2023-03-21T05:19:17;21.95;;;9.23;;
70073;SDS011;57445;51.058;3.698;2023-03-21T05:21:48;22.08;;;10.07;;
70073;SDS011;57445;51.058;3.698;2023-03-21T05:24:21;20.52;;;10.18;;
70073;SDS011;57445;51.058;3.698;2023-03-21T05:26:48;20.85;;;10.10;;
70073;SDS011;57445;51.058;3.698;2023-03-21T05:29:18;21.55;;;9.57;;
70073;SDS011;57445;51.058;3.698;2023-03-21T05:31:46;20.38;;;9.85;;
70073;SDS011;57445;51.058;3.698;2023-03-21T05:34:16;19.33;;;10.35;;
70073;SDS011;57445;51.058;3.698;2023-03-21T05:36:49;21.48;;;10.43;;
70073;SDS011;57445;51.058;3.698;2023-03-21T05:39:21;22.50;;;10.15;;
70073;SDS011;57445;51.058;3.698;2023-03-21T05:41:49;21.92;;;10.77;;
70073;SDS011;57445;51.058;3.698;2023-03-21T05:44:23;17.60;;;9.32;;
70073;SDS011;57445;51.058;3.698;2023-03-21T05:46:52;24.17;;;10.52;;
70073;SDS011;57445;51.058;3.698;2023-03-21T05:49:20;18.45;;;9.77;;
70073;SDS011;57445;51.058;3.698;2023-03-21T05:51:49;17.40;;;9.20;;
70073;SDS011;57445;51.058;3.698;2023-03-21T05:54:18;19.00;;;9.73;;
70073;SDS011;57445;51.058;3.698;2023-03-21T05:56:46;22.40;;;10.13;;
70073;SDS011;57445;51.058;3.698;2023-03-21T05:59:14;21.35;;;9.75;;
70073;SDS011;57445;51.058;3.698;2023-03-21T06:01:44;20.13;;;9.85;;
70073;SDS011;57445;51.058;3.698;2023-03-21T06:04:12;23.25;;;11.27;;
70073;SDS011;57445;51.058;3.698;2023-03-21T06:06:40;18.85;;;10.52;;
70073;SDS011;57445;51.058;3.698;2023-03-21T06:09:12;22.75;;;10.30;;
70073;SDS011;57445;51.058;3.698;2023-03-21T06:11:42;21.63;;;11.63;;
70073;SDS011;57445;51.058;3.698;2023-03-21T06:14:13;20.58;;;10.65;;
70073;SDS011;57445;51.058;3.698;2023-03-21T06:16:50;23.60;;;11.15;;
70073;SDS011;57445;51.058;3.698;2023-03-21T06:19:18;24.33;;;11.00;;
70073;SDS011;57445;51.058;3.698;2023-03-21T06:21:47;25.70;;;10.95;;
70073;SDS011;57445;51.058;3.698;2023-03-21T06:24:15;20.67;;;12.10;;
70073;SDS011;57445;51.058;3.698;2023-03-21T06:26:44;25.10;;;12.13;;
70073;SDS011;57445;51.058;3.698;2023-03-21T06:29:17;21.27;;;12.25;;
70073;SDS011;57445;51.058;3.698;2023-03-21T06:31:51;23.58;;;12.63;;
70073;SDS011;57445;51.058;3.698;2023-03-21T06:34:19;22.55;;;12.95;;
70073;SDS011;57445;51.058;3.698;2023-03-21T06:36:51;26.00;;;12.63;;
70073;SDS011;57445;51.058;3.698;2023-03-21T06:39:19;23.40;;;12.43;;
70073;SDS011;57445;51.058;3.698;2023-03-21T06:41:54;25.30;;;12.43;;
70073;SDS011;57445;51.058;3.698;2023-03-21T06:44:27;20.83;;;11.63;;
70073;SDS011;57445;51.058;3.698;2023-03-21T06:47:01;27.88;;;12.75;;
70073;SDS011;57445;51.058;3.698;2023-03-21T06:49:29;22.35;;;11.68;;
70073;SDS011;57445;51.058;3.698;2023-03-21T06:52:02;23.52;;;12.38;;
70073;SDS011;57445;51.058;3.698;2023-03-21T06:54:35;24.05;;;11.88;;
70073;SDS011;57445;51.058;3.698;2023-03-21T06:57:07;22.77;;;11.45;;
70073;SDS011;57445;51.058;3.698;2023-03-21T06:59:36;24.40;;;11.65;;
70073;SDS011;57445;51.058;3.698;2023-03-21T07:02:09;19.70;;;10.95;;
70073;SDS011;57445;51.058;3.698;2023-03-21T07:04:37;17.45;;;10.90;;
70073;SDS011;57445;51.058;3.698;2023-03-21T07:07:05;20.80;;;10.80;;
70073;SDS011;57445;51.058;3.698;2023-03-21T07:09:37;22.83;;;10.60;;
70073;SDS011;57445;51.058;3.698;2023-03-21T07:12:08;21.52;;;10.35;;
70073;SDS011;57445;51.058;3.698;2023-03-21T07:14:40;22.08;;;10.15;;
70073;SDS011;57445;51.058;3.698;2023-03-21T07:17:17;20.10;;;10.50;;
70073;SDS011;57445;51.058;3.698;2023-03-21T07:19:45;26.67;;;10.43;;
70073;SDS011;57445;51.058;3.698;2023-03-21T07:22:17;21.15;;;10.07;;
70073;SDS011;57445;51.058;3.698;2023-03-21T07:24:45;18.15;;;9.20;;
70073;SDS011;57445;51.058;3.698;2023-03-21T07:27:18;20.50;;;9.75;;
70073;SDS011;57445;51.058;3.698;2023-03-21T07:29:50;18.75;;;10.27;;
70073;SDS011;57445;51.058;3.698;2023-03-21T07:32:24;21.15;;;10.23;;
70073;SDS011;57445;51.058;3.698;2023-03-21T07:34:54;19.52;;;9.27;;
70073;SDS011;57445;51.058;3.698;2023-03-21T07:37:26;21.98;;;10.00;;
70073;SDS011;57445;51.058;3.698;2023-03-21T07:39:58;19.38;;;8.63;;
70073;SDS011;57445;51.058;3.698;2023-03-21T07:42:26;17.40;;;9.25;;
70073;SDS011;57445;51.058;3.698;2023-03-21T07:44:55;32.55;;;9.65;;
70073;SDS011;57445;51.058;3.698;2023-03-21T07:47:28;15.27;;;8.73;;
70073;SDS011;57445;51.058;3.698;2023-03-21T07:50:01;17.85;;;8.43;;
70073;SDS011;57445;51.058;3.698;2023-03-21T07:52:30;15.88;;;8.52;;
70073;SDS011;57445;51.058;3.698;2023-03-21T07:54:58;20.10;;;9.00;;
70073;SDS011;57445;51.058;3.698;2023-03-21T07:57:33;19.48;;;8.52;;
70073;SDS011;57445;51.058;3.698;2023-03-21T08:00:02;16.75;;;8.30;;
70073;SDS011;57445;51.058;3.698;2023-03-21T08:02:38;18.20;;;7.97;;
70073;SDS011;57445;51.058;3.698;2023-03-21T08:05:06;17.65;;;8.02;;
70073;SDS011;57445;51.058;3.698;2023-03-21T08:07:34;17.85;;;7.70;;
70073;SDS011;57445;51.058;3.698;2023-03-21T08:10:07;16.20;;;7.95;;
70073;SDS011;57445;51.058;3.698;2023-03-21T08:12:36;14.15;;;7.75;;
70073;SDS011;57445;51.058;3.698;2023-03-21T08:15:09;17.02;;;7.68;;
70073;SDS011;57445;51.058;3.698;2023-03-21T08:17:40;14.80;;;7.40;;
70073;SDS011;57445;51.058;3.698;2023-03-21T08:20:11;15.98;;;7.95;;
70073;SDS011;57445;51.058;3.698;2023-03-21T08:22:41;16.15;;;7.38;;
70073;SDS011;57445;51.058;3.698;2023-03-21T08:25:10;17.15;;;7.65;;
70073;SDS011;57445;51.058;3.698;2023-03-21T08:27:44;20.83;;;7.95;;
70073;SDS011;57445;51.058;3.698;2023-03-21T08:30:18;14.05;;;6.40;;
70073;SDS011;57445;51.058;3.698;2023-03-21T08:32:49;16.20;;;6.25;;
70073;SDS011;57445;51.058;3.698;2023-03-21T08:35:17;11.95;;;6.80;;
70073;SDS011;57445;51.058;3.698;2023-03-21T08:37:46;16.63;;;6.75;;
70073;SDS011;57445;51.058;3.698;2023-03-21T08:40:14;15.65;;;7.05;;
70073;SDS011;57445;51.058;3.698;2023-03-21T08:42:48;13.85;;;7.20;;
70073;SDS011;57445;51.058;3.698;2023-03-21T08:45:16;13.13;;;6.38;;
70073;SDS011;57445;51.058;3.698;2023-03-21T08:47:44;16.50;;;6.45;;
70073;SDS011;57445;51.058;3.698;2023-03-21T08:50:15;15.52;;;6.30;;
70073;SDS011;57445;51.058;3.698;2023-03-21T08:52:44;16.55;;;6.35;;
70073;SDS011;57445;51.058;3.698;2023-03-21T08:55:13;11.90;;;6.13;;
70073;SDS011;57445;51.058;3.698;2023-03-21T08:57:47;15.10;;;6.30;;
70073;SDS011;57445;51.058;3.698;2023-03-21T09:00:20;16.05;;;6.75;;
70073;SDS011;57445;51.058;3.698;2023-03-21T09:02:48;12.93;;;5.80;;
70073;SDS011;57445;51.058;3.698;2023-03-21T09:05:25;15.10;;;6.78;;
70073;SDS011;57445;51.058;3.698;2023-03-21T09:07:53;16.10;;;6.43;;
70073;SDS011;57445;51.058;3.698;2023-03-21T09:10:21;13.50;;;6.30;;
70073;SDS011;57445;51.058;3.698;2023-03-21T09:12:50;13.00;;;5.32;;
70073;SDS011;57445;51.058;3.698;2023-03-21T09:15:19;15.20;;;5.55;;
70073;SDS011;57445;51.058;3.698;2023-03-21T09:17:54;12.82;;;5.88;;
70073;SDS011;57445;51.058;3.698;2023-03-21T09:20:24;11.77;;;5.90;;
70073;SDS011;57445;51.058;3.698;2023-03-21T09:22:57;17.13;;;6.15;;
70073;SDS011;57445;51.058;3.698;2023-03-21T09:25:26;10.82;;;5.85;;
70073;SDS011;57445;51.058;3.698;2023-03-21T09:27:55;9.10;;;5.43;;
70073;SDS011;57445;51.058;3.698;2023-03-21T09:30:23;12.75;;;5.90;;
70073;SDS011;57445;51.058;3.698;2023-03-21T09:32:51;11.27;;;5.22;;
70073;SDS011;57445;51.058;3.698;2023-03-21T09:35:20;13.25;;;5.68;;
70073;SDS011;57445;51.058;3.698;2023-03-21T09:37:55;11.23;;;5.63;;
70073;SDS011;57445;51.058;3.698;2023-03-21T09:40:30;12.43;;;5.70;;
70073;SDS011;57445;51.058;3.698;2023-03-21T09:43:30;12.57;;;5.50;;
70073;SDS011;57445;51.058;3.698;2023-03-21T09:46:13;11.95;;;5.25;;
70073;SDS011;57445;51.058;3.698;2023-03-21T09:48:49;13.13;;;5.47;;
70073;SDS011;57445;51.058;3.698;2023-03-21T09:51:27;13.48;;;5.90;;
70073;SDS011;57445;51.058;3.698;2023-03-21T09:54:10;11.65;;;5.97;;
70073;SDS011;57445;51.058;3.698;2023-03-21T09:56:43;14.90;;;5.63;;
70073;SDS011;57445;51.058;3.698;2023-03-21T09:59:13;12.50;;;5.47;;
70073;SDS011;57445;51.058;3.698;2023-03-21T10:01:54;13.63;;;5.47;;
70073;SDS011;57445;51.058;3.698;2023-03-21T10:04:29;12.52;;;5.53;;
70073;SDS011;57445;51.058;3.698;2023-03-21T10:07:03;11.15;;;5.03;;
70073;SDS011;57445;51.058;3.698;2023-03-21T10:09:38;13.48;;;5.60;;
70073;SDS011;57445;51.058;3.698;2023-03-21T10:12:11;15.57;;;5.97;;
70073;SDS011;57445;51.058;3.698;2023-03-21T10:14:52;13.88;;;5.43;;
70073;SDS011;57445;51.058;3.698;2023-03-21T10:17:24;13.93;;;5.88;;
70073;SDS011;57445;51.058;3.698;2023-03-21T10:19:56;11.98;;;5.30;;
70073;SDS011;57445;51.058;3.698;2023-03-21T10:22:38;12.52;;;5.28;;
70073;SDS011;57445;51.058;3.698;2023-03-21T10:25:10;11.13;;;5.30;;
70073;SDS011;57445;51.058;3.698;2023-03-21T10:27:41;14.07;;;5.65;;
70073;SDS011;57445;51.058;3.698;2023-03-21T10:30:12;16.00;;;6.00;;
70073;SDS011;57445;51.058;3.698;2023-03-21T10:32:50;11.23;;;6.20;;
70073;SDS011;57445;51.058;3.698;2023-03-21T10:35:18;14.95;;;6.07;;
70073;SDS011;57445;51.058;3.698;2023-03-21T10:37:46;13.57;;;6.10;;
70073;SDS011;57445;51.058;3.698;2023-03-21T10:40:16;14.45;;;6.30;;
70073;SDS011;57445;51.058;3.698;2023-03-21T10:42:44;15.23;;;5.90;;
70073;SDS011;57445;51.058;3.698;2023-03-21T10:45:13;14.48;;;6.20;;
70073;SDS011;57445;51.058;3.698;2023-03-21T10:47:45;12.80;;;5.32;;
70073;SDS011;57445;51.058;3.698;2023-03-21T10:50:15;16.40;;;5.65;;
70073;SDS011;57445;51.058;3.698;2023-03-21T10:52:45;10.30;;;5.05;;
70073;SDS011;57445;51.058;3.698;2023-03-21T10:55:19;12.18;;;5.15;;
70073;SDS011;57445;51.058;3.698;2023-03-21T10:57:52;9.13;;;4.90;;
70073;SDS011;57445;51.058;3.698;2023-03-21T11:00:24;10.85;;;5.18;;
70073;SDS011;57445;51.058;3.698;2023-03-21T11:02:59;11.50;;;5.18;;
70073;SDS011;57445;51.058;3.698;2023-03-21T11:05:32;10.50;;;5.07;;
70073;SDS011;57445;51.058;3.698;2023-03-21T11:08:04;13.02;;;5.43;;
70073;SDS011;57445;51.058;3.698;2023-03-21T11:10:47;14.35;;;5.28;;
70073;SDS011;57445;51.058;3.698;2023-03-21T11:13:19;13.13;;;4.88;;
70073;SDS011;57445;51.058;3.698;2023-03-21T11:15:56;8.82;;;4.55;;
70073;SDS011;57445;51.058;3.698;2023-03-21T11:18:38;8.68;;;4.55;;
70073;SDS011;57445;51.058;3.698;2023-03-21T11:21:08;11.10;;;4.78;;
70073;SDS011;57445;51.058;3.698;2023-03-21T11:23:43;8.85;;;4.57;;
70073;SDS011;57445;51.058;3.698;2023-03-21T11:26:17;11.60;;;4.95;;
70073;SDS011;57445;51.058;3.698;2023-03-21T11:28:49;11.73;;;5.68;;
70073;SDS011;57445;51.058;3.698;2023-03-21T11:31:17;9.63;;;4.60;;
70073;SDS011;57445;51.058;3.698;2023-03-21T11:33:48;9.93;;;4.60;;
70073;SDS011;57445;51.058;3.698;2023-03-21T11:36:31;14.63;;;5.22;;
70073;SDS011;57445;51.058;3.698;2023-03-21T11:39:01;9.15;;;4.97;;
70073;SDS011;57445;51.058;3.698;2023-03-21T11:41:48;11.38;;;5.18;;
70073;SDS011;57445;51.058;3.698;2023-03-21T11:44:25;10.95;;;4.70;;
70073;SDS011;57445;51.058;3.698;2023-03-21T11:46:58;8.75;;;4.47;;
70073;SDS011;57445;51.058;3.698;2023-03-21T11:49:33;9.77;;;4.22;;
70073;SDS011;57445;51.058;3.698;2023-03-21T11:52:10;9.02;;;4.90;;
70073;SDS011;57445;51.058;3.698;2023-03-21T11:54:51;8.80;;;4.30;;
70073;SDS011;57445;51.058;3.698;2023-03-21T11:57:32;11.23;;;4.07;;
70073;SDS011;57445;51.058;3.698;2023-03-21T12:00:10;9.93;;;4.13;;
70073;SDS011;57445;51.058;3.698;2023-03-21T12:02:52;11.32;;;4.05;;
70073;SDS011;57445;51.058;3.698;2023-03-21T12:05:35;10.27;;;4.07;;
70073;SDS011;57445;51.058;3.698;2023-03-21T12:08:08;10.68;;;4.50;;
70073;SDS011;57445;51.058;3.698;2023-03-21T12:10:50;12.55;;;4.35;;
70073;SDS011;57445;51.058;3.698;2023-03-21T12:13:28;8.82;;;3.85;;
70073;SDS011;57445;51.058;3.698;2023-03-21T12:16:09;10.40;;;5.10;;
70073;SDS011;57445;51.058;3.698;2023-03-21T12:19:02;9.55;;;4.30;;
70073;SDS011;57445;51.058;3.698;2023-03-21T12:21:47;11.95;;;4.80;;
70073;SDS011;57445;51.058;3.698;2023-03-21T12:24:21;11.63;;;4.67;;
70073;SDS011;57445;51.058;3.698;2023-03-21T12:26:55;10.50;;;4.60;;
70073;SDS011;57445;51.058;3.698;2023-03-21T12:29:42;38.58;;;6.75;;
70073;SDS011;57445;51.058;3.698;2023-03-21T12:32:21;9.70;;;4.53;;
70073;SDS011;57445;51.058;3.698;2023-03-21T12:35:08;12.43;;;5.13;;
70073;SDS011;57445;51.058;3.698;2023-03-21T12:37:52;14.15;;;5.20;;
70073;SDS011;57445;51.058;3.698;2023-03-21T12:40:33;11.57;;;5.20;;
70073;SDS011;57445;51.058;3.698;2023-03-21T12:43:20;10.10;;;4.82;;
70073;SDS011;57445;51.058;3.698;2023-03-21T12:46:02;10.50;;;5.32;;
70073;SDS011;57445;51.058;3.698;2023-03-21T12:48:35;11.02;;;5.32;;
70073;SDS011;57445;51.058;3.698;2023-03-21T12:51:12;9.73;;;5.07;;
70073;SDS011;57445;51.058;3.698;2023-03-21T12:56:34;14.27;;;4.95;;
70073;SDS011;57445;51.058;3.698;2023-03-21T12:59:11;14.35;;;6.25;;
70073;SDS011;57445;51.058;3.698;2023-03-21T13:01:51;10.25;;;4.82;;
70073;SDS011;57445;51.058;3.698;2023-03-21T13:04:33;10.98;;;5.13;;
70073;SDS011;57445;51.058;3.698;2023-03-21T13:07:09;12.95;;;5.05;;
70073;SDS011;57445;51.058;3.698;2023-03-21T13:09:42;10.88;;;4.75;;
70073;SDS011;57445;51.058;3.698;2023-03-21T13:12:23;12.65;;;4.97;;
70073;SDS011;57445;51.058;3.698;2023-03-21T13:15:10;9.40;;;4.70;;
70073;SDS011;57445;51.058;3.698;2023-03-21T13:17:51;15.63;;;5.00;;
70073;SDS011;57445;51.058;3.698;2023-03-21T13:22:59;9.63;;;4.60;;
70073;SDS011;57445;51.058;3.698;2023-03-21T13:25:29;10.40;;;5.22;;
70073;SDS011;57445;51.058;3.698;2023-03-21T13:27:59;9.98;;;5.05;;
70073;SDS011;57445;51.058;3.698;2023-03-21T13:30:29;10.43;;;5.00;;
70073;SDS011;57445;51.058;3.698;2023-03-21T13:33:04;8.70;;;5.38;;
70073;SDS011;57445;51.058;3.698;2023-03-21T13:35:34;10.63;;;5.72;;
70073;SDS011;57445;51.058;3.698;2023-03-21T13:38:11;15.55;;;5.90;;
70073;SDS011;57445;51.058;3.698;2023-03-21T13:40:42;13.50;;;7.00;;
70073;SDS011;57445;51.058;3.698;2023-03-21T13:46:06;11.57;;;6.78;;
70073;SDS011;57445;51.058;3.698;2023-03-21T13:48:46;10.27;;;6.70;;
70073;SDS011;57445;51.058;3.698;2023-03-21T13:57:00;14.43;;;8.50;;
70073;SDS011;57445;51.058;3.698;2023-03-21T13:59:35;15.38;;;8.95;;
70073;SDS011;57445;51.058;3.698;2023-03-21T14:02:22;14.85;;;8.77;;
70073;SDS011;57445;51.058;3.698;2023-03-21T14:04:57;14.93;;;7.90;;
70073;SDS011;57445;51.058;3.698;2023-03-21T14:07:27;15.48;;;8.13;;
70073;SDS011;57445;51.058;3.698;2023-03-21T14:09:58;16.23;;;7.22;;
70073;SDS011;57445;51.058;3.698;2023-03-21T14:12:29;13.00;;;7.32;;
70073;SDS011;57445;51.058;3.698;2023-03-21T14:15:06;14.55;;;7.13;;
70073;SDS011;57445;51.058;3.698;2023-03-21T14:17:48;9.75;;;5.95;;
70073;SDS011;57445;51.058;3.698;2023-03-21T14:20:20;13.02;;;6.63;;
70073;SDS011;57445;51.058;3.698;2023-03-21T14:22:49;11.02;;;7.00;;
70073;SDS011;57445;51.058;3.698;2023-03-21T14:25:18;12.43;;;6.88;;
70073;SDS011;57445;51.058;3.698;2023-03-21T14:27:47;12.45;;;6.80;;
70073;SDS011;57445;51.058;3.698;2023-03-21T14:30:21;12.93;;;6.07;;
70073;SDS011;57445;51.058;3.698;2023-03-21T14:32:57;9.63;;;5.82;;
70073;SDS011;57445;51.058;3.698;2023-03-21T14:35:32;13.55;;;6.35;;
70073;SDS011;57445;51.058;3.698;2023-03-21T14:38:02;12.68;;;6.10;;
70073;SDS011;57445;51.058;3.698;2023-03-21T14:40:36;9.15;;;5.50;;
70073;SDS011;57445;51.058;3.698;2023-03-21T14:43:12;10.57;;;5.47;;
70073;SDS011;57445;51.058;3.698;2023-03-21T14:45:40;8.57;;;4.63;;
70073;SDS011;57445;51.058;3.698;2023-03-21T14:48:09;7.35;;;4.72;;
70073;SDS011;57445;51.058;3.698;2023-03-21T14:50:47;12.68;;;5.45;;
70073;SDS011;57445;51.058;3.698;2023-03-21T14:53:18;13.60;;;4.80;;
70073;SDS011;57445;51.058;3.698;2023-03-21T14:55:49;7.80;;;4.40;;
70073;SDS011;57445;51.058;3.698;2023-03-21T14:58:22;6.32;;;4.38;;
70073;SDS011;57445;51.058;3.698;2023-03-21T15:00:51;9.50;;;4.53;;
70073;SDS011;57445;51.058;3.698;2023-03-21T15:03:25;12.45;;;4.90;;
70073;SDS011;57445;51.058;3.698;2023-03-21T15:05:58;7.10;;;4.00;;
70073;SDS011;57445;51.058;3.698;2023-03-21T15:08:28;7.00;;;3.83;;
70073;SDS011;57445;51.058;3.698;2023-03-21T15:10:57;8.45;;;3.90;;
70073;SDS011;57445;51.058;3.698;2023-03-21T15:13:27;8.88;;;3.83;;
70073;SDS011;57445;51.058;3.698;2023-03-21T15:15:58;7.88;;;3.67;;
70073;SDS011;57445;51.058;3.698;2023-03-21T15:18:27;6.78;;;4.35;;
70073;SDS011;57445;51.058;3.698;2023-03-21T15:20:59;6.93;;;3.30;;